sensor_id;sensor_type;location;lat;lon;timestamp;pressure;altitude;pressure_sealevel;temperature;humidity
6435;BME280;3250;42.694;23.278;2022-07-05T00:01:33;95002.13;;;23.95;43.71
6435;BME280;3250;42.694;23.278;2022-07-05T00:03:59;94958.44;;;23.65;43.84
6435;BME280;3250;42.694;23.278;2022-07-05T00:06:24;95001.25;;;23.81;44.12
6435;BME280;3250;42.694;23.278;2022-07-05T00:08:50;95002.31;;;23.80;44.09
6435;BME280;3250;42.694;23.278;2022-07-05T00:11:15;94995.94;;;23.76;44.07
6435;BME280;3250;42.694;23.278;2022-07-05T00:13:41;94966.16;;;23.48;44.40
6435;BME280;3250;42.694;23.278;2022-07-05T00:16:06;94982.19;;;23.58;45.51
6435;BME280;3250;42.694;23.278;2022-07-05T00:18:32;94992.72;;;23.55;47.07
6435;BME280;3250;42.694;23.278;2022-07-05T00:20:57;94998.16;;;23.50;47.45
6435;BME280;3250;42.694;23.278;2022-07-05T00:23:22;94994.50;;;23.41;48.50
6435;BME280;3250;42.694;23.278;2022-07-05T00:25:48;94995.06;;;23.38;49.15
6435;BME280;3250;42.694;23.278;2022-07-05T00:28:13;94990.03;;;23.31;49.56
6435;BME280;3250;42.694;23.278;2022-07-05T00:30:40;94991.19;;;23.25;50.02
6435;BME280;3250;42.694;23.278;2022-07-05T00:33:06;94984.22;;;23.24;46.79
6435;BME280;3250;42.694;23.278;2022-07-05T00:35:31;94983.94;;;23.25;45.36
6435;BME280;3250;42.694;23.278;2022-07-05T00:37:56;94980.44;;;23.25;44.99
6435;BME280;3250;42.694;23.278;2022-07-05T00:40:22;94986.91;;;23.24;46.63
6435;BME280;3250;42.694;23.278;2022-07-05T00:42:48;94985.81;;;23.25;47.07
6435;BME280;3250;42.694;23.278;2022-07-05T00:45:13;94981.56;;;23.19;47.04
6435;BME280;3250;42.694;23.278;2022-07-05T00:47:38;94958.44;;;22.99;47.35
6435;BME280;3250;42.694;23.278;2022-07-05T00:50:04;94974.66;;;23.13;45.15
6435;BME280;3250;42.694;23.278;2022-07-05T00:52:30;94983.59;;;23.08;45.91
6435;BME280;3250;42.694;23.278;2022-07-05T00:54:56;94980.09;;;23.08;45.17
6435;BME280;3250;42.694;23.278;2022-07-05T00:57:22;94985.69;;;23.11;45.75
6435;BME280;3250;42.694;23.278;2022-07-05T00:59:49;94982.47;;;23.09;46.40
6435;BME280;3250;42.694;23.278;2022-07-05T01:02:14;94954.28;;;22.88;47.92
6435;BME280;3250;42.694;23.278;2022-07-05T01:04:40;94984.44;;;23.04;47.69
6435;BME280;3250;42.694;23.278;2022-07-05T01:07:05;94991.47;;;23.00;48.68
6435;BME280;3250;42.694;23.278;2022-07-05T01:09:32;94989.91;;;22.93;47.08
6435;BME280;3250;42.694;23.278;2022-07-05T01:11:58;94996.66;;;22.91;46.60
6435;BME280;3250;42.694;23.278;2022-07-05T01:14:24;94996.66;;;22.91;45.58
6435;BME280;3250;42.694;23.278;2022-07-05T01:16:50;94997.47;;;22.91;45.04
6435;BME280;3250;42.694;23.278;2022-07-05T01:19:17;94992.88;;;22.92;45.02
6435;BME280;3250;42.694;23.278;2022-07-05T01:21:44;94998.25;;;22.92;47.65
6435;BME280;3250;42.694;23.278;2022-07-05T01:24:13;94996.69;;;22.86;48.16
6435;BME280;3250;42.694;23.278;2022-07-05T01:26:39;94968.47;;;22.59;49.45
6435;BME280;3250;42.694;23.278;2022-07-05T01:29:06;95000.84;;;22.73;50.23
6435;BME280;3250;42.694;23.278;2022-07-05T01:31:32;95004.59;;;22.72;50.56
6435;BME280;3250;42.694;23.278;2022-07-05T01:33:58;94997.72;;;22.61;51.29
6435;BME280;3250;42.694;23.278;2022-07-05T01:36:23;94998.66;;;22.46;51.79
6435;BME280;3250;42.694;23.278;2022-07-05T01:38:50;94977.88;;;22.28;52.14
6435;BME280;3250;42.694;23.278;2022-07-05T01:41:16;94996.63;;;22.33;53.04
6435;BME280;3250;42.694;23.278;2022-07-05T01:43:41;94957.97;;;22.05;53.58
6435;BME280;3250;42.694;23.278;2022-07-05T01:46:08;94986.25;;;22.22;53.74
6435;BME280;3250;42.694;23.278;2022-07-05T01:48:35;94986.28;;;22.16;54.00
6435;BME280;3250;42.694;23.278;2022-07-05T01:51:10;94985.56;;;22.06;54.79
6435;BME280;3250;42.694;23.278;2022-07-05T01:53:39;94999.00;;;22.01;54.99
6435;BME280;3250;42.694;23.278;2022-07-05T01:56:06;94966.94;;;21.80;55.86
6435;BME280;3250;42.694;23.278;2022-07-05T01:58:32;94990.72;;;21.92;55.48
6435;BME280;3250;42.694;23.278;2022-07-05T02:00:58;94979.53;;;21.80;56.42
6435;BME280;3250;42.694;23.278;2022-07-05T02:03:25;94980.63;;;21.79;56.30
6435;BME280;3250;42.694;23.278;2022-07-05T02:05:51;94983.81;;;21.81;56.74
6435;BME280;3250;42.694;23.278;2022-07-05T02:08:19;94987.66;;;21.65;56.72
6435;BME280;3250;42.694;23.278;2022-07-05T02:10:45;94965.25;;;21.51;56.95
6435;BME280;3250;42.694;23.278;2022-07-05T02:13:12;94983.94;;;21.61;57.24
6435;BME280;3250;42.694;23.278;2022-07-05T02:15:39;94994.69;;;21.56;57.67
6435;BME280;3250;42.694;23.278;2022-07-05T02:18:07;94998.44;;;21.55;58.24
6435;BME280;3250;42.694;23.278;2022-07-05T02:20:33;94997.63;;;21.54;57.96
6435;BME280;3250;42.694;23.278;2022-07-05T02:22:59;94995.25;;;21.48;58.11
6435;BME280;3250;42.694;23.278;2022-07-05T02:25:25;94973.13;;;21.27;58.50
6435;BME280;3250;42.694;23.278;2022-07-05T02:27:52;95000.66;;;21.37;59.17
6435;BME280;3250;42.694;23.278;2022-07-05T02:30:18;95003.66;;;21.26;59.00
6435;BME280;3250;42.694;23.278;2022-07-05T02:32:44;95003.94;;;21.19;58.92
6435;BME280;3250;42.694;23.278;2022-07-05T02:35:10;94981.22;;;21.01;59.08
6435;BME280;3250;42.694;23.278;2022-07-05T02:37:36;95005.84;;;21.08;59.62
6435;BME280;3250;42.694;23.278;2022-07-05T02:40:03;95007.72;;;21.03;59.77
6435;BME280;3250;42.694;23.278;2022-07-05T02:42:28;95013.91;;;20.88;60.67
6435;BME280;3250;42.694;23.278;2022-07-05T02:44:54;95016.59;;;20.88;59.95
6435;BME280;3250;42.694;23.278;2022-07-05T02:47:19;95009.66;;;20.82;60.63
6435;BME280;3250;42.694;23.278;2022-07-05T02:49:45;95020.34;;;20.87;61.22
6435;BME280;3250;42.694;23.278;2022-07-05T02:52:10;95020.34;;;20.92;60.44
6435;BME280;3250;42.694;23.278;2022-07-05T02:54:36;95019.84;;;20.75;60.30
6435;BME280;3250;42.694;23.278;2022-07-05T02:57:01;95017.97;;;20.70;60.44
6435;BME280;3250;42.694;23.278;2022-07-05T02:59:27;95027.84;;;20.70;61.63
6435;BME280;3250;42.694;23.278;2022-07-05T03:01:53;95027.59;;;20.71;60.95
6435;BME280;3250;42.694;23.278;2022-07-05T03:04:18;95013.69;;;20.75;60.92
6435;BME280;3250;42.694;23.278;2022-07-05T03:06:44;95023.84;;;20.73;61.53
6435;BME280;3250;42.694;23.278;2022-07-05T03:09:09;95023.31;;;20.76;61.19
6435;BME280;3250;42.694;23.278;2022-07-05T03:11:35;95024.38;;;20.80;61.85
6435;BME280;3250;42.694;23.278;2022-07-05T03:14:01;95026.50;;;20.83;62.60
6435;BME280;3250;42.694;23.278;2022-07-05T03:16:26;95022.22;;;20.77;62.28
6435;BME280;3250;42.694;23.278;2022-07-05T03:18:51;95028.13;;;20.74;62.53
6435;BME280;3250;42.694;23.278;2022-07-05T03:21:17;95029.44;;;20.76;62.94
6435;BME280;3250;42.694;23.278;2022-07-05T03:23:43;95024.63;;;20.78;62.23
6435;BME280;3250;42.694;23.278;2022-07-05T03:26:08;95019.28;;;20.73;62.13
6435;BME280;3250;42.694;23.278;2022-07-05T03:28:34;95003.53;;;20.61;62.45
6435;BME280;3250;42.694;23.278;2022-07-05T03:30:59;95026.78;;;20.81;61.88
6435;BME280;3250;42.694;23.278;2022-07-05T03:33:25;95020.09;;;20.79;61.19
6435;BME280;3250;42.694;23.278;2022-07-05T03:35:50;95017.94;;;20.81;61.82
6435;BME280;3250;42.694;23.278;2022-07-05T03:38:16;95017.38;;;20.99;61.87
6435;BME280;3250;42.694;23.278;2022-07-05T03:40:42;95018.97;;;21.10;61.24
6435;BME280;3250;42.694;23.278;2022-07-05T03:43:07;95020.28;;;21.23;61.79
6435;BME280;3250;42.694;23.278;2022-07-05T03:45:32;94998.81;;;21.33;61.64
6435;BME280;3250;42.694;23.278;2022-07-05T03:47:59;95000.94;;;21.36;60.26
6435;BME280;3250;42.694;23.278;2022-07-05T03:50:25;95013.69;;;21.59;60.33
6435;BME280;3250;42.694;23.278;2022-07-05T03:52:50;95015.75;;;21.72;60.79
6435;BME280;3250;42.694;23.278;2022-07-05T03:55:16;94990.84;;;21.72;61.28
6435;BME280;3250;42.694;23.278;2022-07-05T03:57:41;95017.22;;;22.04;59.76
6435;BME280;3250;42.694;23.278;2022-07-05T04:00:08;95006.44;;;22.14;58.43
6435;BME280;3250;42.694;23.278;2022-07-05T04:02:33;95016.56;;;22.22;58.81
6435;BME280;3250;42.694;23.278;2022-07-05T04:04:59;95016.16;;;22.39;59.08
6435;BME280;3250;42.694;23.278;2022-07-05T04:07:24;95019.28;;;22.51;58.58
6435;BME280;3250;42.694;23.278;2022-07-05T04:09:50;95015.44;;;22.62;58.12
6435;BME280;3250;42.694;23.278;2022-07-05T04:12:15;95019.09;;;22.76;57.80
6435;BME280;3250;42.694;23.278;2022-07-05T04:14:41;95014.66;;;22.90;57.83
6435;BME280;3250;42.694;23.278;2022-07-05T04:17:06;95020.88;;;23.10;56.95
6435;BME280;3250;42.694;23.278;2022-07-05T04:19:32;95020.56;;;23.16;55.63
6435;BME280;3250;42.694;23.278;2022-07-05T04:21:57;95023.63;;;23.28;56.11
6435;BME280;3250;42.694;23.278;2022-07-05T04:24:23;95015.13;;;23.45;56.26
6435;BME280;3250;42.694;23.278;2022-07-05T04:26:48;94980.69;;;23.47;54.29
6435;BME280;3250;42.694;23.278;2022-07-05T04:29:14;95013.31;;;23.83;54.05
6435;BME280;3250;42.694;23.278;2022-07-05T04:31:39;94993.03;;;23.91;54.30
6435;BME280;3250;42.694;23.278;2022-07-05T04:34:04;95020.53;;;24.25;54.65
6435;BME280;3250;42.694;23.278;2022-07-05T04:36:30;94989.84;;;24.26;52.15
6435;BME280;3250;42.694;23.278;2022-07-05T04:38:55;94971.00;;;24.26;52.67
6435;BME280;3250;42.694;23.278;2022-07-05T04:41:21;95018.22;;;24.70;51.43
6435;BME280;3250;42.694;23.278;2022-07-05T04:43:47;95019.41;;;24.77;51.06
6435;BME280;3250;42.694;23.278;2022-07-05T04:46:12;94997.59;;;24.79;50.33
6435;BME280;3250;42.694;23.278;2022-07-05T04:48:37;95004.09;;;24.92;50.89
6435;BME280;3250;42.694;23.278;2022-07-05T04:51:03;94995.34;;;25.00;51.08
6435;BME280;3250;42.694;23.278;2022-07-05T04:53:28;95005.16;;;25.23;49.68
6435;BME280;3250;42.694;23.278;2022-07-05T04:55:54;95019.53;;;25.46;49.98
6435;BME280;3250;42.694;23.278;2022-07-05T04:58:19;94953.16;;;25.23;48.98
6435;BME280;3250;42.694;23.278;2022-07-05T05:00:45;94965.91;;;25.44;49.33
6435;BME280;3250;42.694;23.278;2022-07-05T05:03:10;94991.84;;;25.81;49.65
6435;BME280;3250;42.694;23.278;2022-07-05T05:05:35;95019.75;;;26.13;48.46
6435;BME280;3250;42.694;23.278;2022-07-05T05:08:01;94979.22;;;25.90;48.58
6435;BME280;3250;42.694;23.278;2022-07-05T05:10:26;95024.50;;;26.29;47.67
6435;BME280;3250;42.694;23.278;2022-07-05T05:12:52;95030.13;;;26.33;46.28
6435;BME280;3250;42.694;23.278;2022-07-05T05:15:17;95031.34;;;26.49;47.37
6435;BME280;3250;42.694;23.278;2022-07-05T05:17:43;94985.22;;;26.37;46.54
6435;BME280;3250;42.694;23.278;2022-07-05T05:20:15;95031.78;;;26.87;47.84
6435;BME280;3250;42.694;23.278;2022-07-05T05:22:42;95030.97;;;27.09;47.05
6435;BME280;3250;42.694;23.278;2022-07-05T05:25:08;95024.53;;;27.27;46.63
6435;BME280;3250;42.694;23.278;2022-07-05T05:27:34;95020.75;;;27.37;46.12
6435;BME280;3250;42.694;23.278;2022-07-05T05:30:00;95031.34;;;27.56;46.60
6435;BME280;3250;42.694;23.278;2022-07-05T05:32:26;94983.34;;;27.30;45.65
6435;BME280;3250;42.694;23.278;2022-07-05T05:34:51;95000.63;;;27.60;45.79
6435;BME280;3250;42.694;23.278;2022-07-05T05:37:17;94990.19;;;27.67;44.16
6435;BME280;3250;42.694;23.278;2022-07-05T05:39:42;95028.13;;;28.02;44.02
6435;BME280;3250;42.694;23.278;2022-07-05T05:42:08;95014.91;;;28.09;44.83
6435;BME280;3250;42.694;23.278;2022-07-05T05:44:33;95025.13;;;28.29;43.25
6435;BME280;3250;42.694;23.278;2022-07-05T05:46:59;95024.69;;;28.44;43.81
6435;BME280;3250;42.694;23.278;2022-07-05T05:49:24;95009.84;;;28.50;43.08
6435;BME280;3250;42.694;23.278;2022-07-05T05:51:49;95021.75;;;28.75;43.15
6435;BME280;3250;42.694;23.278;2022-07-05T05:54:15;95018.59;;;28.82;42.63
6435;BME280;3250;42.694;23.278;2022-07-05T05:56:40;95027.50;;;28.91;42.07
6435;BME280;3250;42.694;23.278;2022-07-05T05:59:06;95021.56;;;28.98;42.99
6435;BME280;3250;42.694;23.278;2022-07-05T06:01:31;95021.88;;;29.13;40.61
6435;BME280;3250;42.694;23.278;2022-07-05T06:03:57;95032.97;;;29.38;40.01
6435;BME280;3250;42.694;23.278;2022-07-05T06:06:22;95029.41;;;29.54;40.58
6435;BME280;3250;42.694;23.278;2022-07-05T06:08:47;95036.59;;;29.50;38.93
6435;BME280;3250;42.694;23.278;2022-07-05T06:11:13;95037.25;;;29.47;40.02
6435;BME280;3250;42.694;23.278;2022-07-05T06:13:39;95020.19;;;29.47;39.94
6435;BME280;3250;42.694;23.278;2022-07-05T06:16:08;95043.66;;;29.81;40.02
6435;BME280;3250;42.694;23.278;2022-07-05T06:18:34;95042.56;;;30.02;39.62
6435;BME280;3250;42.694;23.278;2022-07-05T06:20:59;95038.75;;;30.24;39.76
6435;BME280;3250;42.694;23.278;2022-07-05T06:23:25;95037.59;;;30.34;37.31
6435;BME280;3250;42.694;23.278;2022-07-05T06:25:50;95043.53;;;30.27;37.37
6435;BME280;3250;42.694;23.278;2022-07-05T06:28:15;95042.22;;;30.33;39.15
6435;BME280;3250;42.694;23.278;2022-07-05T06:30:42;95030.56;;;30.33;37.01
6435;BME280;3250;42.694;23.278;2022-07-05T06:33:07;95013.44;;;30.32;37.42
6435;BME280;3250;42.694;23.278;2022-07-05T06:35:34;95045.09;;;30.58;38.92
6435;BME280;3250;42.694;23.278;2022-07-05T06:40:27;95039.97;;;30.77;37.16
6435;BME280;3250;42.694;23.278;2022-07-05T06:42:59;95032.84;;;30.52;36.96
6435;BME280;3250;42.694;23.278;2022-07-05T06:45:25;95038.63;;;30.62;37.41
6435;BME280;3250;42.694;23.278;2022-07-05T06:47:58;95030.00;;;30.81;38.30
6435;BME280;3250;42.694;23.278;2022-07-05T06:50:32;95031.56;;;31.03;37.97
6435;BME280;3250;42.694;23.278;2022-07-05T06:52:59;95020.19;;;31.22;36.44
6435;BME280;3250;42.694;23.278;2022-07-05T06:55:25;95025.81;;;31.17;34.85
6435;BME280;3250;42.694;23.278;2022-07-05T06:57:58;95011.72;;;31.02;35.54
6435;BME280;3250;42.694;23.278;2022-07-05T07:00:24;95024.63;;;31.05;35.72
6435;BME280;3250;42.694;23.278;2022-07-05T07:02:50;95018.69;;;31.12;36.72
6435;BME280;3250;42.694;23.278;2022-07-05T07:05:15;95016.75;;;31.25;36.01
6435;BME280;3250;42.694;23.278;2022-07-05T07:07:41;95015.88;;;31.45;34.95
6435;BME280;3250;42.694;23.278;2022-07-05T07:10:25;95011.81;;;31.51;35.28
6435;BME280;3250;42.694;23.278;2022-07-05T07:12:50;95022.28;;;31.85;36.47
6435;BME280;3250;42.694;23.278;2022-07-05T07:15:16;95015.22;;;31.97;33.26
6435;BME280;3250;42.694;23.278;2022-07-05T07:17:41;95019.34;;;31.91;34.45
6435;BME280;3250;42.694;23.278;2022-07-05T07:20:07;95007.84;;;31.85;35.26
6435;BME280;3250;42.694;23.278;2022-07-05T07:22:33;95028.41;;;31.95;36.76
6435;BME280;3250;42.694;23.278;2022-07-05T07:24:58;95025.88;;;32.14;36.68
6435;BME280;3250;42.694;23.278;2022-07-05T07:27:24;95025.78;;;32.22;34.33
6435;BME280;3250;42.694;23.278;2022-07-05T07:29:49;95022.94;;;31.46;35.28
6435;BME280;3250;42.694;23.278;2022-07-05T07:32:15;95012.38;;;30.99;35.90
6435;BME280;3250;42.694;23.278;2022-07-05T07:34:40;95021.81;;;30.69;37.57
6435;BME280;3250;42.694;23.278;2022-07-05T07:37:06;95018.16;;;30.65;37.59
6435;BME280;3250;42.694;23.278;2022-07-05T07:39:34;95009.09;;;30.94;38.30
6435;BME280;3250;42.694;23.278;2022-07-05T07:42:00;95019.75;;;31.44;37.08
6435;BME280;3250;42.694;23.278;2022-07-05T07:44:26;94998.78;;;31.57;38.42
6435;BME280;3250;42.694;23.278;2022-07-05T07:46:51;94990.94;;;31.43;34.76
6435;BME280;3250;42.694;23.278;2022-07-05T07:49:17;95009.63;;;31.20;35.33
6435;BME280;3250;42.694;23.278;2022-07-05T07:51:43;95013.84;;;30.97;39.41
6435;BME280;3250;42.694;23.278;2022-07-05T07:54:09;95014.97;;;31.29;41.96
6435;BME280;3250;42.694;23.278;2022-07-05T07:56:34;95004.41;;;32.00;34.88
6435;BME280;3250;42.694;23.278;2022-07-05T07:59:00;95017.53;;;32.47;35.30
6435;BME280;3250;42.694;23.278;2022-07-05T08:01:25;95004.16;;;32.70;36.27
6435;BME280;3250;42.694;23.278;2022-07-05T08:03:51;95019.03;;;33.00;35.95
6435;BME280;3250;42.694;23.278;2022-07-05T08:06:16;95022.19;;;33.30;34.25
6435;BME280;3250;42.694;23.278;2022-07-05T08:08:43;95020.69;;;33.48;33.22
6435;BME280;3250;42.694;23.278;2022-07-05T08:11:13;95016.19;;;33.56;32.30
6435;BME280;3250;42.694;23.278;2022-07-05T08:13:38;95012.59;;;33.36;34.53
6435;BME280;3250;42.694;23.278;2022-07-05T08:16:08;95012.94;;;32.91;34.35
6435;BME280;3250;42.694;23.278;2022-07-05T08:18:35;95010.63;;;32.77;34.71
6435;BME280;3250;42.694;23.278;2022-07-05T08:21:19;95016.13;;;32.93;33.35
6435;BME280;3250;42.694;23.278;2022-07-05T08:24:02;94993.19;;;32.02;34.01
6435;BME280;3250;42.694;23.278;2022-07-05T08:26:28;95001.94;;;31.95;35.82
6435;BME280;3250;42.694;23.278;2022-07-05T08:28:55;95001.84;;;32.16;36.35
6435;BME280;3250;42.694;23.278;2022-07-05T08:31:23;94999.13;;;32.44;39.00
6435;BME280;3250;42.694;23.278;2022-07-05T08:33:49;95002.31;;;32.86;35.78
6435;BME280;3250;42.694;23.278;2022-07-05T08:36:14;94996.84;;;33.29;35.35
6435;BME280;3250;42.694;23.278;2022-07-05T08:38:40;94994.81;;;33.26;36.00
6435;BME280;3250;42.694;23.278;2022-07-05T08:41:07;94990.94;;;33.27;36.35
6435;BME280;3250;42.694;23.278;2022-07-05T08:43:35;94989.69;;;32.81;35.87
6435;BME280;3250;42.694;23.278;2022-07-05T08:46:02;94974.69;;;33.03;37.40
6435;BME280;3250;42.694;23.278;2022-07-05T08:48:29;94994.28;;;33.37;35.71
6435;BME280;3250;42.694;23.278;2022-07-05T08:50:56;94989.22;;;33.07;34.31
6435;BME280;3250;42.694;23.278;2022-07-05T08:53:22;94988.81;;;33.37;34.56
6435;BME280;3250;42.694;23.278;2022-07-05T08:55:47;94987.31;;;33.39;34.00
6435;BME280;3250;42.694;23.278;2022-07-05T08:58:13;94982.13;;;33.50;32.61
6435;BME280;3250;42.694;23.278;2022-07-05T09:00:39;94971.53;;;33.64;34.09
6435;BME280;3250;42.694;23.278;2022-07-05T09:03:06;94966.75;;;33.92;32.78
6435;BME280;3250;42.694;23.278;2022-07-05T09:05:40;94968.66;;;34.07;32.61
6435;BME280;3250;42.694;23.278;2022-07-05T09:08:09;94972.34;;;34.34;31.51
6435;BME280;3250;42.694;23.278;2022-07-05T09:10:37;94963.41;;;33.99;32.64
6435;BME280;3250;42.694;23.278;2022-07-05T09:13:03;94961.81;;;33.82;32.17
6435;BME280;3250;42.694;23.278;2022-07-05T09:15:29;94963.28;;;33.29;31.90
6435;BME280;3250;42.694;23.278;2022-07-05T09:17:55;94961.34;;;33.29;31.79
6435;BME280;3250;42.694;23.278;2022-07-05T09:20:20;94949.63;;;33.45;33.60
6435;BME280;3250;42.694;23.278;2022-07-05T09:22:48;94951.91;;;33.43;33.31
6435;BME280;3250;42.694;23.278;2022-07-05T09:27:50;94937.28;;;33.19;32.38
6435;BME280;3250;42.694;23.278;2022-07-05T09:33:01;94918.50;;;32.43;33.33
6435;BME280;3250;42.694;23.278;2022-07-05T09:35:27;94941.09;;;32.43;33.58
6435;BME280;3250;42.694;23.278;2022-07-05T09:37:53;94936.03;;;32.30;35.05
6435;BME280;3250;42.694;23.278;2022-07-05T09:40:19;94937.13;;;32.41;35.45
6435;BME280;3250;42.694;23.278;2022-07-05T09:42:44;94882.84;;;32.36;36.77
6435;BME280;3250;42.694;23.278;2022-07-05T09:45:10;94926.53;;;32.95;34.24
6435;BME280;3250;42.694;23.278;2022-07-05T09:47:35;94922.03;;;33.18;33.99
6435;BME280;3250;42.694;23.278;2022-07-05T09:50:08;94924.44;;;33.36;31.87
6435;BME280;3250;42.694;23.278;2022-07-05T09:52:42;94922.84;;;33.34;32.64
6435;BME280;3250;42.694;23.278;2022-07-05T09:55:15;94898.13;;;33.27;32.95
6435;BME280;3250;42.694;23.278;2022-07-05T09:57:45;94916.50;;;33.30;33.15
6435;BME280;3250;42.694;23.278;2022-07-05T10:00:21;94902.50;;;32.69;32.87
6435;BME280;3250;42.694;23.278;2022-07-05T10:02:52;94905.69;;;32.59;33.36
6435;BME280;3250;42.694;23.278;2022-07-05T10:05:18;94903.63;;;32.40;34.41
6435;BME280;3250;42.694;23.278;2022-07-05T10:07:48;94907.94;;;32.41;34.46
6435;BME280;3250;42.694;23.278;2022-07-05T10:10:21;94899.91;;;32.60;33.85
6435;BME280;3250;42.694;23.278;2022-07-05T10:12:49;94903.31;;;32.57;34.33
6435;BME280;3250;42.694;23.278;2022-07-05T10:15:22;94905.78;;;32.35;33.97
6435;BME280;3250;42.694;23.278;2022-07-05T10:23:11;94891.78;;;32.20;35.59
6435;BME280;3250;42.694;23.278;2022-07-05T10:25:38;94867.53;;;32.03;36.40
6435;BME280;3250;42.694;23.278;2022-07-05T10:28:05;94861.63;;;32.01;34.91
6435;BME280;3250;42.694;23.278;2022-07-05T10:30:31;94887.22;;;31.84;34.79
6435;BME280;3250;42.694;23.278;2022-07-05T10:32:57;94882.03;;;31.79;35.28
6435;BME280;3250;42.694;23.278;2022-07-05T10:35:23;94889.72;;;31.90;35.72
6435;BME280;3250;42.694;23.278;2022-07-05T10:37:49;94882.69;;;31.76;36.51
6435;BME280;3250;42.694;23.278;2022-07-05T10:40:16;94868.84;;;31.81;36.06
6435;BME280;3250;42.694;23.278;2022-07-05T10:42:47;94845.13;;;31.82;35.33
6435;BME280;3250;42.694;23.278;2022-07-05T10:45:27;94874.44;;;31.73;35.26
6435;BME280;3250;42.694;23.278;2022-07-05T10:48:23;94867.53;;;31.63;35.39
6435;BME280;3250;42.694;23.278;2022-07-05T11:06:45;94853.53;;;32.17;34.48
6435;BME280;3250;42.694;23.278;2022-07-05T11:09:15;94850.56;;;32.10;34.93
6435;BME280;3250;42.694;23.278;2022-07-05T11:11:46;94850.50;;;32.06;34.93
6435;BME280;3250;42.694;23.278;2022-07-05T11:16:45;94842.84;;;32.12;34.42
6435;BME280;3250;42.694;23.278;2022-07-05T11:19:15;94839.97;;;31.93;33.81
6435;BME280;3250;42.694;23.278;2022-07-05T11:22:04;94840.38;;;32.07;34.41
6435;BME280;3250;42.694;23.278;2022-07-05T11:24:35;94830.34;;;32.11;34.47
6435;BME280;3250;42.694;23.278;2022-07-05T11:27:03;94824.91;;;32.11;35.26
6435;BME280;3250;42.694;23.278;2022-07-05T11:29:50;94799.84;;;32.05;37.85
6435;BME280;3250;42.694;23.278;2022-07-05T11:35:11;94826.06;;;32.38;34.95
6435;BME280;3250;42.694;23.278;2022-07-05T11:37:32;94832.34;;;32.26;36.02
6435;BME280;3250;42.694;23.278;2022-07-05T11:42:47;94806.44;;;32.16;38.40
6435;BME280;3250;42.694;23.278;2022-07-05T11:45:13;94824.38;;;32.33;36.36
6435;BME280;3250;42.694;23.278;2022-07-05T11:47:40;94828.94;;;32.29;36.37
6435;BME280;3250;42.694;23.278;2022-07-05T11:50:06;94800.88;;;32.01;37.13
6435;BME280;3250;42.694;23.278;2022-07-05T11:52:35;94810.84;;;32.09;36.22
6435;BME280;3250;42.694;23.278;2022-07-05T11:55:03;94799.41;;;32.03;37.25
6435;BME280;3250;42.694;23.278;2022-07-05T11:57:28;94780.16;;;31.96;37.22
6435;BME280;3250;42.694;23.278;2022-07-05T11:59:54;94801.84;;;32.20;36.53
6435;BME280;3250;42.694;23.278;2022-07-05T12:02:19;94797.91;;;31.90;36.33
6435;BME280;3250;42.694;23.278;2022-07-05T12:04:56;94762.41;;;31.74;36.17
6435;BME280;3250;42.694;23.278;2022-07-05T12:07:29;94789.47;;;31.95;36.17
6435;BME280;3250;42.694;23.278;2022-07-05T12:09:55;94792.19;;;31.95;36.34
6435;BME280;3250;42.694;23.278;2022-07-05T12:12:39;94779.81;;;31.98;35.60
6435;BME280;3250;42.694;23.278;2022-07-05T12:15:14;94784.38;;;32.09;35.86
6435;BME280;3250;42.694;23.278;2022-07-05T12:17:41;94776.28;;;31.97;38.10
6435;BME280;3250;42.694;23.278;2022-07-05T12:20:09;94755.97;;;31.95;36.13
6435;BME280;3250;42.694;23.278;2022-07-05T12:22:53;94751.66;;;31.94;36.63
6435;BME280;3250;42.694;23.278;2022-07-05T12:25:20;94775.84;;;32.23;35.62
6435;BME280;3250;42.694;23.278;2022-07-05T12:27:48;94762.91;;;32.36;35.44
6435;BME280;3250;42.694;23.278;2022-07-05T12:30:14;94764.41;;;32.49;36.43
6435;BME280;3250;42.694;23.278;2022-07-05T12:35:40;94765.72;;;32.39;35.08
6435;BME280;3250;42.694;23.278;2022-07-05T12:38:08;94772.75;;;32.56;35.75
6435;BME280;3250;42.694;23.278;2022-07-05T12:40:35;94766.63;;;32.43;34.33
6435;BME280;3250;42.694;23.278;2022-07-05T12:43:06;94750.16;;;32.40;35.20
6435;BME280;3250;42.694;23.278;2022-07-05T12:45:33;94746.03;;;32.30;34.88
6435;BME280;3250;42.694;23.278;2022-07-05T12:48:06;94753.06;;;32.31;36.06
6435;BME280;3250;42.694;23.278;2022-07-05T12:50:51;94751.81;;;32.44;36.44
6435;BME280;3250;42.694;23.278;2022-07-05T12:53:18;94761.25;;;32.47;34.56
6435;BME280;3250;42.694;23.278;2022-07-05T12:56:12;94733.69;;;32.05;35.23
6435;BME280;3250;42.694;23.278;2022-07-05T12:59:01;94728.41;;;32.12;35.08
6435;BME280;3250;42.694;23.278;2022-07-05T13:01:31;94725.06;;;32.03;36.00
6435;BME280;3250;42.694;23.278;2022-07-05T13:04:10;94731.78;;;32.21;36.52
6435;BME280;3250;42.694;23.278;2022-07-05T13:09:12;94722.66;;;32.60;37.39
6435;BME280;3250;42.694;23.278;2022-07-05T13:11:39;94721.84;;;32.44;35.12
6435;BME280;3250;42.694;23.278;2022-07-05T13:14:04;94713.44;;;32.34;35.66
6435;BME280;3250;42.694;23.278;2022-07-05T13:16:30;94715.78;;;32.51;35.75
6435;BME280;3250;42.694;23.278;2022-07-05T13:19:06;94717.69;;;32.66;35.67
6435;BME280;3250;42.694;23.278;2022-07-05T13:21:32;94699.94;;;32.56;35.26
6435;BME280;3250;42.694;23.278;2022-07-05T13:23:57;94705.56;;;32.64;35.56
6435;BME280;3250;42.694;23.278;2022-07-05T13:26:23;94713.81;;;32.67;35.35
6435;BME280;3250;42.694;23.278;2022-07-05T13:28:48;94722.38;;;32.50;36.26
6435;BME280;3250;42.694;23.278;2022-07-05T13:31:14;94712.16;;;32.47;36.04
6435;BME280;3250;42.694;23.278;2022-07-05T13:33:39;94693.09;;;32.31;36.60
6435;BME280;3250;42.694;23.278;2022-07-05T13:36:05;94702.09;;;32.16;36.08
6435;BME280;3250;42.694;23.278;2022-07-05T13:38:30;94699.19;;;32.25;36.47
6435;BME280;3250;42.694;23.278;2022-07-05T13:40:55;94704.97;;;32.23;36.04
6435;BME280;3250;42.694;23.278;2022-07-05T13:43:21;94657.28;;;32.01;36.42
6435;BME280;3250;42.694;23.278;2022-07-05T13:45:46;94706.75;;;32.31;36.20
6435;BME280;3250;42.694;23.278;2022-07-05T13:48:11;94696.69;;;32.19;36.38
6435;BME280;3250;42.694;23.278;2022-07-05T13:50:37;94670.41;;;31.96;35.73
6435;BME280;3250;42.694;23.278;2022-07-05T13:53:02;94696.50;;;31.97;36.70